Time;durP1;ratioP1;P1;durP2;ratioP2;P2;SDS_P1;SDS_P2;PMS_P1;PMS_P2;Temp;Humidity;BMP_temperature;BMP_pressure;BME280_temperature;BME280_humidity;BME280_pressure;Samples;Min_cycle;Max_cycle;Signal;HPM_P1;HPM_P2
2023/10/28 00:02:23;;;;;;;6.25;1.45;;;;;;;25.88;98.67;100644.88;143725;593;47000;-75
2023/10/28 00:04:49;;;;;;;6.70;1.60;;;;;;;25.90;97.95;100633.53;143720;570;46025;-75
2023/10/28 00:07:16;;;;;;;5.55;1.40;;;;;;;25.90;97.35;100619.78;143726;586;46004;-75
2023/10/28 00:09:42;;;;;;;4.72;1.30;;;;;;;25.91;96.72;100617.88;143723;586;47000;-74
2023/10/28 00:12:08;;;;;;;4.25;1.52;;;;;;;25.88;97.26;100619.28;143723;597;46026;-75
2023/10/28 00:14:35;;;;;;;6.80;1.70;;;;;;;25.85;98.56;100623.47;143724;567;46008;-75
2023/10/28 00:17:01;;;;;;;4.55;1.45;;;;;;;25.85;99.63;100623.47;143724;684;46004;-75
2023/10/28 00:19:29;;;;;;;3.65;1.42;;;;;;;25.85;99.31;100626.22;143718;610;46007;-74
2023/10/28 00:21:55;;;;;;;5.72;1.17;;;;;;;25.84;98.37;100621.03;143719;605;46010;-75
2023/10/28 00:24:22;;;;;;;5.32;2.00;;;;;;;25.80;98.29;100620.78;143723;649;46008;-76
2023/10/28 00:26:48;;;;;;;6.75;1.55;;;;;;;25.76;100.00;100629.97;143720;658;47004;-75
2023/10/28 00:29:15;;;;;;;4.90;1.35;;;;;;;25.77;99.76;100637.09;143722;597;46006;-75
2023/10/28 00:31:44;;;;;;;3.70;1.05;;;;;;;25.80;99.03;100631.00;143720;637;47004;-75
2023/10/28 00:34:10;;;;;;;3.42;1.17;;;;;;;25.78;98.02;100623.03;143723;589;47004;-75
2023/10/28 00:36:36;;;;;;;8.30;1.50;;;;;;;25.76;98.50;100635.47;143720;627;47002;-75
2023/10/28 00:39:03;;;;;;;6.07;1.42;;;;;;;25.69;99.79;100633.13;143726;622;46006;-74
2023/10/28 00:41:32;;;;;;;7.85;2.00;;;;;;;25.65;99.54;100630.16;143725;567;46011;-75
2023/10/28 00:43:58;;;;;;;7.20;2.40;;;;;;;25.67;98.48;100625.19;143726;666;46010;-77
2023/10/28 00:46:25;;;;;;;5.25;2.00;;;;;;;25.79;96.63;100623.84;143713;569;47008;-75
2023/10/28 00:48:53;;;;;;;6.05;1.37;;;;;;;25.83;96.73;100628.44;143722;629;47007;-74
2023/10/28 00:51:19;;;;;;;4.70;1.20;;;;;;;25.82;97.72;100623.25;143723;686;48004;-74
2023/10/28 00:53:46;;;;;;;4.28;1.27;;;;;;;25.76;97.65;100618.97;143724;569;46008;-76
2023/10/28 00:56:12;;;;;;;4.55;1.30;;;;;;;25.75;97.06;100623.66;143720;602;47004;-74
2023/10/28 00:58:40;;;;;;;6.30;2.10;;;;;;;25.76;97.51;100625.28;143724;584;46006;-75
2023/10/28 01:01:10;;;;;;;6.12;1.25;;;;;;;25.73;97.59;100620.41;143723;610;46010;-74
2023/10/28 01:03:36;;;;;;;3.25;1.20;;;;;;;25.78;97.13;100635.97;143725;575;46010;-75
2023/10/28 01:06:03;;;;;;;5.90;2.25;;;;;;;25.78;97.53;100630.47;143715;606;49008;-75
2023/10/28 01:08:29;;;;;;;7.07;1.95;;;;;;;25.80;96.94;100629.03;143723;573;46010;-74
2023/10/28 01:11:01;;;;;;;6.50;1.83;;;;;;;25.79;96.74;100621.91;143714;576;47002;-74
2023/10/28 01:13:28;;;;;;;3.30;1.20;;;;;;;25.82;96.13;100626.81;143717;643;47011;-74
2023/10/28 01:15:55;;;;;;;4.35;1.08;;;;;;;25.80;98.14;100626.28;143719;572;46008;-74
2023/10/28 01:18:22;;;;;;;5.03;1.40;;;;;;;25.76;97.80;100618.97;143727;570;46007;-75
2023/10/28 01:20:48;;;;;;;3.83;1.33;;;;;;;25.70;98.66;100629.25;143723;579;46010;-76
2023/10/28 01:23:14;;;;;;;5.87;1.17;;;;;;;25.69;98.81;100633.13;143721;568;47010;-74
2023/10/28 01:25:41;;;;;;;4.25;1.52;;;;;;;25.68;98.41;100624.03;143722;594;46009;-75
2023/10/28 01:28:08;;;;;;;5.82;1.40;;;;;;;25.68;98.58;100621.28;143720;591;46010;-74
2023/10/28 01:30:34;;;;;;;5.55;1.50;;;;;;;25.63;98.83;100626.91;143724;566;46006;-75
2023/10/28 01:33:02;;;;;;;3.20;1.00;;;;;;;25.53;98.51;100622.41;143722;636;46022;-75
2023/10/28 01:35:29;;;;;;;7.78;1.90;;;;;;;25.54;98.87;100634.19;143716;583;47002;-74
2023/10/28 01:37:55;;;;;;;8.68;1.58;;;;;;;25.55;100.00;100625.66;143717;593;46014;-75
2023/10/28 01:40:22;;;;;;;3.67;1.10;;;;;;;25.57;99.56;100619.84;143721;573;46006;-74
2023/10/28 01:42:48;;;;;;;6.40;1.73;;;;;;;25.60;99.62;100627.50;143725;675;46011;-74
2023/10/28 01:45:15;;;;;;;3.47;1.23;;;;;;;25.60;99.17;100630.25;143723;569;46008;-74
2023/10/28 01:47:43;;;;;;;4.47;1.48;;;;;;;25.58;99.63;100622.31;143721;579;47000;-74
2023/10/28 01:50:16;;;;;;;3.78;1.37;;;;;;;25.56;99.42;100619.03;143724;569;47002;-75
2023/10/28 01:52:43;;;;;;;4.95;1.80;;;;;;;25.57;99.24;100614.34;143722;625;46010;-76
2023/10/28 01:55:09;;;;;;;3.90;1.35;;;;;;;25.57;99.64;100622.59;143719;588;46012;-75
2023/10/28 01:57:36;;;;;;;7.40;1.50;;;;;;;25.57;99.44;100615.19;143723;625;46007;-76
2023/10/28 02:00:06;;;;;;;5.55;1.67;;;;;;;25.57;99.96;100612.44;143719;600;47002;-75
2023/10/28 04:02:20;;;;;;;4.50;1.48;;;;;;;25.06;100.00;100596.78;143720;573;47002;-74
2023/10/28 04:04:47;;;;;;;7.15;2.12;;;;;;;25.04;100.00;100597.06;143712;591;46024;-74
2023/10/28 04:07:13;;;;;;;8.25;1.75;;;;;;;25.02;100.00;100599.28;143719;568;47008;-74
2023/10/28 04:09:39;;;;;;;4.68;1.40;;;;;;;25.06;100.00;100602.28;143718;627;47004;-75
2023/10/28 04:12:06;;;;;;;6.72;2.10;;;;;;;25.06;100.00;100596.78;143707;573;47008;-74
2023/10/28 04:14:36;;;;;;;5.20;1.40;;;;;;;25.09;100.00;100599.75;143720;593;47006;-75
2023/10/28 04:17:05;;;;;;;8.82;2.03;;;;;;;25.07;100.00;100604.72;143720;604;47008;-74
2023/10/28 04:19:33;;;;;;;10.35;2.20;;;;;;;25.05;100.00;100600.66;143721;572;46929;-74
2023/10/28 04:21:59;;;;;;;5.50;1.80;;;;;;;25.07;100.00;100592.91;143718;596;48004;-76
2023/10/28 04:24:25;;;;;;;4.57;1.50;;;;;;;25.11;100.00;100602.19;143722;578;46023;-74
2023/10/28 04:26:52;;;;;;;10.13;1.95;;;;;;;25.07;100.00;100609.38;143721;592;47013;-74
2023/10/28 04:29:19;;;;;;;6.93;2.03;;;;;;;25.09;100.00;100613.47;143718;591;46004;-75
2023/10/28 04:31:45;;;;;;;7.53;1.77;;;;;;;25.15;100.00;100599.66;143725;627;46007;-75
2023/10/28 04:34:11;;;;;;;5.93;1.50;;;;;;;25.15;100.00;100597.72;143719;592;47002;-75
2023/10/28 04:36:38;;;;;;;5.70;2.00;;;;;;;25.14;100.00;100609.81;143709;580;47008;-76
2023/10/28 04:39:05;;;;;;;7.62;1.62;;;;;;;25.13;100.00;100598.03;143719;636;47002;-75
2023/10/28 04:41:31;;;;;;;8.25;1.90;;;;;;;25.10;100.00;100619.78;143721;600;46018;-75
2023/10/28 04:43:57;;;;;;;10.07;2.22;;;;;;;25.16;100.00;100623.25;143723;624;47004;-75
2023/10/28 04:46:24;;;;;;;7.07;1.87;;;;;;;25.12;100.00;100623.87;143719;590;46922;-76
2023/10/28 04:48:50;;;;;;;8.48;2.28;;;;;;;25.17;100.00;100622.16;143712;627;47004;-76
2023/10/28 04:51:17;;;;;;;9.05;1.95;;;;;;;25.15;100.00;100636.19;143715;630;46006;-75
2023/10/28 04:53:45;;;;;;;9.52;2.08;;;;;;;25.13;100.00;100636.50;143707;598;50006;-75
2023/10/28 04:56:11;;;;;;;5.50;2.03;;;;;;;25.12;100.00;100645.88;143722;576;47008;-76
2023/10/28 04:58:38;;;;;;;8.95;2.20;;;;;;;25.15;100.00;100649.94;143720;588;47008;-76
2023/10/28 05:01:04;;;;;;;6.55;2.08;;;;;;;25.12;100.00;100645.88;143725;594;46006;-75
2023/10/28 05:03:31;;;;;;;8.00;2.25;;;;;;;25.18;100.00;100652.09;143721;595;47002;-75
2023/10/28 05:05:58;;;;;;;8.65;1.45;;;;;;;25.25;100.00;100641.50;143720;594;46010;-76
2023/10/28 05:08:24;;;;;;;8.88;1.92;;;;;;;25.32;100.00;100648.56;143719;583;47004;-76
2023/10/28 05:10:51;;;;;;;9.10;1.85;;;;;;;25.33;100.00;100640.00;143722;601;46012;-76
2023/10/28 05:13:18;;;;;;;7.30;1.50;;;;;;;25.36;100.00;100644.91;143721;588;47004;-76
2023/10/28 05:15:44;;;;;;;8.77;1.90;;;;;;;25.35;100.00;100642.47;143723;621;46010;-76
2023/10/28 05:18:11;;;;;;;7.85;1.90;;;;;;;25.37;100.00;100637.50;143715;567;47010;-76
2023/10/28 05:20:37;;;;;;;7.43;1.58;;;;;;;25.37;100.00;100649.31;143727;601;46002;-75
2023/10/28 05:23:03;;;;;;;11.18;1.75;;;;;;;25.37;100.00;100648.50;143720;609;47004;-76
2023/10/28 05:25:30;;;;;;;4.15;1.52;;;;;;;25.42;100.00;100651.16;143721;575;46016;-75
2023/10/28 05:27:56;;;;;;;5.55;2.00;;;;;;;25.46;100.00;100659.66;143720;596;47010;-75
2023/10/28 05:30:23;;;;;;;9.30;2.72;;;;;;;25.47;100.00;100653.84;143720;587;46018;-75
2023/10/28 05:32:50;;;;;;;11.52;1.83;;;;;;;25.49;100.00;100662.59;143711;574;46014;-76
2023/10/28 05:35:17;;;;;;;8.77;2.83;;;;;;;25.49;100.00;100664.56;143722;567;46021;-76
2023/10/28 05:37:44;;;;;;;13.18;2.15;;;;;;;25.54;100.00;100675.44;143720;625;47004;-75
2023/10/28 05:40:13;;;;;;;6.90;2.30;;;;;;;25.51;100.00;100678.78;143720;569;47007;-75
2023/10/28 05:42:39;;;;;;;7.37;1.70;;;;;;;25.50;100.00;100679.94;143719;612;46004;-75
2023/10/28 05:45:07;;;;;;;10.18;2.42;;;;;;;25.50;100.00;100672.50;143722;581;46010;-75
2023/10/28 05:47:34;;;;;;;9.25;2.15;;;;;;;25.51;100.00;100681.53;143716;583;47002;-75
2023/10/28 05:50:05;;;;;;;10.98;2.92;;;;;;;25.56;100.00;100682.31;143721;594;47002;-76
2023/10/28 05:52:38;;;;;;;8.23;2.35;;;;;;;25.58;100.00;100687.47;143859;579;46010;-76
2023/10/28 05:55:05;;;;;;;13.13;2.72;;;;;;;25.68;100.00;100692.00;143734;579;47004;-75
2023/10/28 05:57:32;;;;;;;9.50;3.10;;;;;;;25.74;100.00;100690.81;143727;618;48003;-75
2023/10/28 05:59:58;;;;;;;12.15;2.95;;;;;;;25.82;100.00;100690.09;143734;663;46004;-76
2023/10/28 06:02:27;;;;;;;10.13;2.62;;;;;;;25.90;100.00;100694.06;143732;624;46923;-75
2023/10/28 06:04:54;;;;;;;7.18;2.55;;;;;;;25.99;100.00;100702.44;143733;573;46012;-76
2023/10/28 06:07:20;;;;;;;6.55;3.12;;;;;;;26.08;100.00;100703.38;143729;592;46926;-76
2023/10/28 06:09:47;;;;;;;10.43;4.22;;;;;;;26.17;100.00;100709.03;143729;566;47004;-76
2023/10/28 06:12:14;;;;;;;17.30;9.27;;;;;;;26.24;100.00;100709.44;143733;656;46018;-79
2023/10/28 06:14:42;;;;;;;10.45;6.50;;;;;;;26.31;100.00;100714.53;143737;601;45010;-77
2023/10/28 06:17:08;;;;;;;29.98;22.50;;;;;;;26.39;100.00;100716.59;143730;616;46008;-77
2023/10/28 06:19:34;;;;;;;9.27;3.90;;;;;;;26.39;100.00;100713.81;143720;617;46011;-78
2023/10/28 06:22:01;;;;;;;24.70;17.62;;;;;;;26.46;100.00;100716.16;143727;680;47006;-76
2023/10/28 06:24:28;;;;;;;47.75;32.90;;;;;;;26.55;100.00;100713.50;143728;567;46006;-77
2023/10/28 06:26:56;;;;;;;16.40;11.10;;;;;;;26.59;100.00;100707.06;143727;568;46008;-77
2023/10/28 06:29:23;;;;;;;31.73;25.05;;;;;;;26.71;100.00;100717.56;143727;632;46004;-77
2023/10/28 06:31:50;;;;;;;15.63;8.35;;;;;;;26.81;100.00;100718.53;143728;705;45924;-78
2023/10/28 06:34:16;;;;;;;42.72;33.53;;;;;;;26.86;100.00;100721.16;143731;731;47004;-77
2023/10/28 06:36:43;;;;;;;24.85;15.55;;;;;;;26.96;100.00;100714.59;143725;644;46010;-76
2023/10/28 06:39:09;;;;;;;21.77;12.95;;;;;;;27.02;100.00;100716.91;143724;567;46004;-77
2023/10/28 06:41:35;;;;;;;31.00;23.98;;;;;;;27.08;100.00;100704.66;143723;586;46006;-76
2023/10/28 06:44:09;;;;;;;27.70;17.60;;;;;;;27.15;100.00;100715.25;143730;573;46007;-77
2023/10/28 06:46:36;;;;;;;19.48;11.40;;;;;;;27.22;100.00;100720.34;143728;634;46008;-77
2023/10/28 06:49:03;;;;;;;18.73;11.95;;;;;;;27.30;100.00;100727.88;143727;703;46930;-78
2023/10/28 06:51:29;;;;;;;21.77;13.02;;;;;;;27.38;100.00;100726.31;143726;588;46006;-78
2023/10/28 06:53:55;;;;;;;19.15;12.30;;;;;;;27.44;100.00;100730.59;143727;702;47004;-78
2023/10/28 06:56:22;;;;;;;15.18;7.80;;;;;;;27.54;99.96;100724.84;143727;602;46010;-76
2023/10/28 06:58:48;;;;;;;32.35;21.35;;;;;;;27.65;98.84;100732.84;143733;578;46005;-77
2023/10/28 07:01:14;;;;;;;26.27;20.27;;;;;;;27.73;99.11;100729.34;143720;704;47006;-77
2023/10/28 07:03:41;;;;;;;18.08;11.27;;;;;;;27.82;98.08;100732.16;143724;566;47004;-77
2023/10/28 07:06:14;;;;;;;35.28;23.25;;;;;;;27.92;98.76;100744.88;143728;583;46010;-78
2023/10/28 07:08:44;;;;;;;31.00;24.33;;;;;;;28.03;97.60;100745.44;143724;734;47004;-78
2023/10/28 07:11:12;;;;;;;22.17;13.32;;;;;;;28.09;95.62;100736.69;143722;605;46006;-77
2023/10/28 07:13:39;;;;;;;42.30;34.47;;;;;;;28.19;95.29;100743.09;143727;593;46010;-78
2023/10/28 07:16:06;;;;;;;33.70;15.80;;;;;;;28.27;90.92;100731.28;143724;650;46010;-77
2023/10/28 07:18:34;;;;;;;54.63;46.42;;;;;;;28.40;93.36;100735.87;143725;641;46008;-76
2023/10/28 07:21:01;;;;;;;21.40;16.50;;;;;;;28.53;94.12;100736.91;143728;655;46006;-76
2023/10/28 07:23:27;;;;;;;18.08;9.18;;;;;;;28.68;89.95;100734.81;143729;592;46010;-77
2023/10/28 07:25:54;;;;;;;28.38;23.73;;;;;;;28.82;90.78;100734.72;143734;572;46008;-75
2023/10/28 07:28:21;;;;;;;17.25;7.57;;;;;;;28.93;90.25;100735.22;143722;580;47004;-77
2023/10/28 07:30:50;;;;;;;14.30;6.20;;;;;;;28.98;90.92;100738.63;143731;651;46010;-76
2023/10/28 07:33:18;;;;;;;22.20;12.07;;;;;;;29.09;92.51;100741.06;143737;590;46010;-77
2023/10/28 07:35:45;;;;;;;15.65;8.43;;;;;;;29.13;91.80;100742.88;143723;584;46009;-78
2023/10/28 07:38:15;;;;;;;7.70;3.20;;;;;;;29.20;87.33;100745.16;143731;569;47004;-77
2023/10/28 07:40:41;;;;;;;19.50;13.00;;;;;;;29.34;87.14;100742.22;143732;582;46006;-78
2023/10/28 07:43:10;;;;;;;14.63;3.78;;;;;;;29.37;86.67;100746.34;143726;629;47000;-79
2023/10/28 07:45:38;;;;;;;13.75;5.75;;;;;;;29.38;85.08;100747.97;143729;572;46008;-79
2023/10/28 07:48:06;;;;;;;10.02;2.55;;;;;;;29.38;87.43;100740.47;143732;576;46008;-78
2023/10/28 07:50:34;;;;;;;9.05;3.33;;;;;;;29.49;87.57;100743.72;143733;591;46006;-79
2023/10/28 07:53:00;;;;;;;13.38;3.65;;;;;;;29.62;86.31;100742.72;143739;568;47002;-78
2023/10/28 07:55:27;;;;;;;7.37;3.15;;;;;;;29.72;85.82;100751.84;143741;584;46008;-74
2023/10/28 07:57:54;;;;;;;11.75;5.35;;;;;;;29.80;86.37;100749.03;143743;598;46005;-77
2023/10/28 08:00:21;;;;;;;19.42;12.07;;;;;;;29.94;87.12;100759.91;143738;573;46002;-74
2023/10/28 08:02:48;;;;;;;19.55;8.35;;;;;;;30.06;85.78;100764.78;143736;588;46002;-76
2023/10/28 08:05:15;;;;;;;12.90;6.62;;;;;;;30.12;85.66;100764.62;143735;657;46010;-76
2023/10/28 08:07:42;;;;;;;19.55;12.80;;;;;;;30.27;85.46;100768.81;143739;609;46008;-76
2023/10/28 08:10:10;;;;;;;16.77;9.25;;;;;;;30.36;85.71;100773.16;143734;607;46006;-77
2023/10/28 08:12:36;;;;;;;16.77;8.63;;;;;;;30.46;84.87;100771.97;143740;609;46010;-77
2023/10/28 08:15:07;;;;;;;41.35;32.47;;;;;;;30.54;84.08;100773.91;143739;697;46008;-76
2023/10/28 08:17:36;;;;;;;47.38;37.00;;;;;;;30.69;82.57;100768.97;143727;699;47004;-78
2023/10/28 08:20:03;;;;;;;10.98;5.20;;;;;;;30.81;82.42;100771.81;143732;649;46006;-79
2023/10/28 08:22:30;;;;;;;16.80;3.62;;;;;;;30.83;79.73;100775.06;143743;576;46006;-77
2023/10/28 08:24:56;;;;;;;12.63;5.97;;;;;;;30.98;78.25;100779.22;143733;635;46010;-75
2023/10/28 08:27:23;;;;;;;9.13;3.25;;;;;;;31.06;78.96;100783.09;143738;573;46011;-75
2023/10/28 08:29:49;;;;;;;8.98;2.30;;;;;;;31.12;80.64;100783.69;143737;570;46019;-77
2023/10/28 08:32:18;;;;;;;15.27;9.88;;;;;;;31.27;77.88;100785.09;143742;584;46010;-74
2023/10/28 08:34:45;;;;;;;13.00;4.68;;;;;;;31.42;76.44;100783.63;143739;587;46004;-76
2023/10/28 08:37:13;;;;;;;12.02;4.37;;;;;;;31.53;74.71;100790.41;143739;648;46004;-76
2023/10/28 08:39:40;;;;;;;7.55;3.15;;;;;;;31.69;74.36;100784.22;143739;622;46019;-75
2023/10/28 08:42:07;;;;;;;12.60;5.50;;;;;;;31.87;75.60;100785.72;143734;594;49002;-77
2023/10/28 08:44:34;;;;;;;8.77;3.30;;;;;;;32.02;73.86;100788.97;143734;582;46010;-77
2023/10/28 08:47:06;;;;;;;11.70;5.97;;;;;;;33.52;70.55;100746.81;143740;593;46008;-75
2023/10/28 08:49:38;;;;;;;19.08;5.70;;;;;;;38.61;57.53;100707.50;143737;567;47002;-75
2023/10/28 08:52:09;;;;;;;16.20;7.22;;;;;;;42.65;46.47;100701.97;143738;588;46006;-78
2023/10/28 08:54:38;;;;;;;12.57;3.62;;;;;;;45.07;39.12;100691.47;143726;581;47008;-76
2023/10/28 08:57:07;;;;;;;15.25;4.43;;;;;;;46.72;35.14;100681.19;143729;567;46009;-78
2023/10/28 08:59:34;;;;;;;20.17;6.82;;;;;;;47.61;32.20;100679.62;143730;623;46006;-78
2023/10/28 09:02:07;;;;;;;8.20;3.33;;;;;;;48.52;31.00;100679.31;143734;624;46006;-74
2023/10/28 09:04:34;;;;;;;12.45;4.28;;;;;;;49.56;29.42;100668.66;143728;659;46010;-78
2023/10/28 09:07:04;;;;;;;9.60;2.53;;;;;;;50.01;28.97;100656.94;143731;608;46008;-78
2023/10/28 09:09:31;;;;;;;14.23;5.00;;;;;;;50.84;27.95;100664.59;143733;566;46006;-78
2023/10/28 09:11:58;;;;;;;16.12;3.80;;;;;;;50.78;27.07;100660.78;143731;792;48000;-79
2023/10/28 09:14:25;;;;;;;10.02;4.45;;;;;;;51.14;26.24;100658.25;143730;707;46011;-79
2023/10/28 09:16:52;;;;;;;14.50;7.45;;;;;;;51.61;25.84;100661.66;143733;572;46022;-78
2023/10/28 09:19:20;;;;;;;11.95;3.20;;;;;;;51.97;25.35;100659.78;143726;573;46007;-80
2023/10/28 09:21:50;;;;;;;10.63;4.18;;;;;;;52.24;24.79;100655.88;143733;629;46006;-77
2023/10/28 09:24:19;;;;;;;14.60;5.15;;;;;;;52.40;24.44;100650.94;143731;575;47926;-79
2023/10/28 09:26:46;;;;;;;11.70;7.37;;;;;;;52.44;24.81;100669.50;143733;647;47002;-80
2023/10/28 09:29:25;;;;;;;7.62;2.33;;;;;;;48.66;26.58;100734.94;143732;587;46004;-77
2023/10/28 09:31:52;;;;;;;6.45;2.78;;;;;;;45.00;30.45;100734.16;143733;608;47004;-80
2023/10/28 09:34:19;;;;;;;8.50;2.58;;;;;;;42.98;32.04;100739.13;143731;758;46009;-78
2023/10/28 09:36:45;;;;;;;11.80;3.22;;;;;;;41.68;35.17;100740.34;143730;579;47004;-79
2023/10/28 09:39:14;;;;;;;11.77;3.35;;;;;;;43.44;32.92;100688.84;143733;663;46006;-77
2023/10/28 09:41:42;;;;;;;13.40;2.87;;;;;;;46.00;30.29;100683.97;143731;586;46011;-77
2023/10/28 09:44:10;;;;;;;8.32;2.40;;;;;;;47.18;28.28;100693.19;143730;657;47026;-80
2023/10/28 09:46:38;;;;;;;10.73;2.67;;;;;;;47.27;28.38;100695.34;143730;673;47004;-78
2023/10/28 09:49:09;;;;;;;8.30;2.12;;;;;;;46.86;27.50;100722.63;143730;608;47004;-75
2023/10/28 09:51:40;;;;;;;9.88;3.00;;;;;;;46.29;29.45;100726.59;143735;573;46002;-78
2023/10/28 09:54:08;;;;;;;9.88;2.58;;;;;;;46.12;29.62;100725.88;143730;597;46026;-79
2023/10/28 09:56:37;;;;;;;7.85;2.75;;;;;;;45.34;30.03;100721.69;143732;601;46009;-75
2023/10/28 09:59:22;;;;;;;13.27;3.53;;;;;;;44.25;30.26;100736.44;143731;597;46006;-74
2023/10/28 10:02:22;;;;;;;9.77;2.65;;;;;;;42.89;30.99;100727.56;143732;614;47004;-76
2023/10/28 10:04:55;;;;;;;10.35;2.90;;;;;;;42.68;33.64;100728.56;143728;602;47002;-77
2023/10/28 10:07:23;;;;;;;16.23;3.40;;;;;;;42.08;32.88;100720.31;143730;576;47002;-76
2023/10/28 10:09:49;;;;;;;13.48;4.53;;;;;;;41.62;32.72;100720.25;143724;575;48002;-78
2023/10/28 10:12:16;;;;;;;10.32;3.05;;;;;;;41.25;33.05;100718.06;143735;581;46006;-77
2023/10/28 10:14:47;;;;;;;11.65;2.72;;;;;;;40.60;33.17;100710.66;143727;581;47004;-77
2023/10/28 10:17:57;;;;;;;11.45;3.03;;;;;;;40.50;35.26;100715.09;143734;670;46012;-79
2023/10/28 10:20:28;;;;;;;10.80;3.10;;;;;;;40.04;35.59;100715.97;143732;624;46007;-77
2023/10/28 10:23:01;;;;;;;20.02;7.43;;;;;;;39.84;37.21;100719.16;143730;577;47010;-79
2023/10/28 10:25:37;;;;;;;14.25;3.92;;;;;;;39.15;36.16;100723.81;143730;609;46008;-78
2023/10/28 10:28:26;;;;;;;10.65;3.95;;;;;;;38.93;36.96;100720.91;143726;716;46008;-78
2023/10/28 10:30:58;;;;;;;10.68;4.57;;;;;;;38.76;37.29;100720.41;143730;568;46002;-77
2023/10/28 10:33:27;;;;;;;12.00;4.20;;;;;;;38.58;38.44;100722.31;143729;606;47009;-78
2023/10/28 10:35:54;;;;;;;11.63;4.18;;;;;;;38.55;38.63;100715.50;143726;598;46011;-78
2023/10/28 10:38:30;;;;;;;15.95;4.70;;;;;;;38.29;38.54;100708.09;143730;671;47002;-76
2023/10/28 10:40:58;;;;;;;12.20;4.65;;;;;;;37.87;37.79;100710.94;143727;583;46011;-76
2023/10/28 10:43:30;;;;;;;11.32;5.68;;;;;;;37.77;38.09;100708.88;143730;642;47004;-76
2023/10/28 10:45:58;;;;;;;14.85;4.82;;;;;;;37.62;38.04;100705.91;143730;587;48923;-78
2023/10/28 10:48:26;;;;;;;13.80;4.05;;;;;;;37.41;38.88;100700.09;143733;648;46004;-80
2023/10/28 10:50:59;;;;;;;14.02;5.55;;;;;;;37.38;39.27;100704.44;143727;659;46006;-76
2023/10/28 10:53:26;;;;;;;15.05;3.67;;;;;;;37.36;40.57;100694.81;143732;603;46006;-77
2023/10/28 10:55:53;;;;;;;12.70;4.05;;;;;;;37.25;39.38;100695.50;143735;638;47002;-78
2023/10/28 10:58:20;;;;;;;8.60;2.70;;;;;;;37.14;41.74;100691.78;143724;619;47004;-76
2023/10/28 11:00:54;;;;;;;12.13;4.15;;;;;;;37.04;42.78;100687.66;143733;566;46006;-77
2023/10/28 11:03:21;;;;;;;10.13;2.87;;;;;;;36.73;42.16;100686.84;143738;583;47003;-79
2023/10/28 11:05:48;;;;;;;14.32;3.33;;;;;;;36.76;42.11;100693.69;143731;580;46014;-80
2023/10/28 11:08:15;;;;;;;10.65;3.10;;;;;;;36.70;42.75;100691.22;143736;604;46012;-79
2023/10/28 11:10:43;;;;;;;11.93;2.28;;;;;;;36.61;42.23;100692.69;143732;612;46007;-77
2023/10/28 11:13:09;;;;;;;13.00;2.37;;;;;;;36.11;43.58;100694.34;143739;609;47006;-79
2023/10/28 11:15:36;;;;;;;8.90;2.90;;;;;;;35.94;43.49;100690.03;143734;588;47010;-79
2023/10/28 11:18:03;;;;;;;8.48;2.55;;;;;;;35.81;44.02;100694.22;143732;605;48009;-77
2023/10/28 11:20:30;;;;;;;12.70;2.85;;;;;;;35.72;44.46;100686.06;143737;569;47004;-79
2023/10/28 11:22:57;;;;;;;14.10;3.45;;;;;;;35.84;44.13;100685.09;143734;629;47004;-79
2023/10/28 11:25:34;;;;;;;15.68;2.78;;;;;;;35.75;44.60;100690.09;143734;605;46010;-78
2023/10/28 11:28:07;;;;;;;18.00;4.85;;;;;;;35.76;44.79;100691.72;143735;616;46012;-78
2023/10/28 11:30:34;;;;;;;13.25;3.12;;;;;;;35.43;44.47;100691.13;143735;578;46006;-77
2023/10/28 11:33:09;;;;;;;13.57;2.45;;;;;;;35.49;44.74;100691.66;143739;589;47002;-76
2023/10/28 11:35:36;;;;;;;13.13;2.60;;;;;;;35.59;44.86;100685.44;143734;625;48924;-76
2023/10/28 11:38:03;;;;;;;11.18;2.47;;;;;;;35.62;43.93;100684.72;143740;700;46004;-74
2023/10/28 11:40:29;;;;;;;7.85;2.08;;;;;;;35.34;44.63;100684.94;143738;639;46006;-76
2023/10/28 11:42:55;;;;;;;12.55;3.20;;;;;;;35.21;45.48;100687.13;143742;581;47002;-76
2023/10/28 11:45:22;;;;;;;7.87;2.40;;;;;;;35.13;45.13;100688.16;143734;627;47008;-73
2023/10/28 11:47:48;;;;;;;12.75;3.28;;;;;;;34.99;45.28;100695.06;143739;567;46004;-78
2023/10/28 11:50:14;;;;;;;10.20;2.87;;;;;;;34.89;45.19;100692.81;143734;742;46006;-75
2023/10/28 11:52:43;;;;;;;7.65;2.40;;;;;;;34.50;46.16;100692.78;143731;606;46015;-75
2023/10/28 11:55:09;;;;;;;10.18;3.03;;;;;;;34.33;47.07;100691.16;143731;607;47010;-78
2023/10/28 11:57:36;;;;;;;4.90;2.10;;;;;;;34.27;47.39;100683.06;143728;605;46012;-75
2023/10/28 12:00:04;;;;;;;14.90;3.05;;;;;;;34.09;48.34;100681.81;143729;613;46006;-78
2023/10/28 12:02:31;;;;;;;9.75;2.70;;;;;;;34.18;47.93;100679.66;143733;742;46010;-80
2023/10/28 12:04:57;;;;;;;9.90;2.47;;;;;;;34.06;48.88;100680.56;143727;576;46011;-78
2023/10/28 12:07:23;;;;;;;11.12;2.85;;;;;;;33.89;48.65;100678.97;143731;572;46008;-77
2023/10/28 12:09:50;;;;;;;9.15;2.67;;;;;;;33.95;49.24;100685.09;143725;609;47006;-78
2023/10/28 12:12:17;;;;;;;14.20;2.55;;;;;;;33.51;50.24;100677.56;143736;574;46005;-78
2023/10/28 12:14:43;;;;;;;9.30;2.87;;;;;;;33.36;50.43;100679.94;143728;640;47002;-79
2023/10/28 12:17:11;;;;;;;12.32;2.78;;;;;;;33.36;50.89;100679.16;143733;605;46009;-78
2023/10/28 12:19:40;;;;;;;7.20;2.10;;;;;;;33.38;50.62;100685.19;143734;588;46006;-78
2023/10/28 12:22:06;;;;;;;17.08;3.40;;;;;;;33.37;51.71;100680.78;143734;569;46010;-79
2023/10/28 12:24:33;;;;;;;10.45;2.03;;;;;;;33.19;52.18;100688.59;143730;585;46010;-79
2023/10/28 12:26:59;;;;;;;8.65;2.10;;;;;;;32.76;52.33;100696.47;143735;567;46002;-77
2023/10/28 12:29:26;;;;;;;8.07;2.08;;;;;;;32.78;52.73;100694.13;143726;578;47000;-78
2023/10/28 12:31:53;;;;;;;4.93;1.73;;;;;;;32.84;51.59;100686.38;143733;577;47002;-79
2023/10/28 12:34:19;;;;;;;10.77;2.35;;;;;;;32.90;52.00;100685.81;143727;577;46009;-79
2023/10/28 12:36:47;;;;;;;9.77;2.28;;;;;;;32.80;52.13;100686.25;143731;605;46004;-79
2023/10/28 12:39:16;;;;;;;8.20;2.12;;;;;;;32.81;52.95;100679.53;143733;604;46006;-80
2023/10/28 12:41:46;;;;;;;10.73;2.58;;;;;;;32.62;52.03;100692.09;143729;607;48010;-79
2023/10/28 12:44:12;;;;;;;8.30;2.22;;;;;;;32.49;52.11;100694.06;143725;604;46014;-78
2023/10/28 12:46:39;;;;;;;8.55;2.28;;;;;;;32.51;51.95;100693.75;143735;577;46002;-78
2023/10/28 12:49:06;;;;;;;9.40;2.12;;;;;;;32.43;52.59;100697.44;143730;589;47007;-79
2023/10/28 12:51:33;;;;;;;9.30;1.87;;;;;;;32.43;53.23;100687.16;143736;572;46004;-77
2023/10/28 12:54:01;;;;;;;14.18;3.30;;;;;;;32.54;52.23;100686.66;143727;658;47010;-78
2023/10/28 12:56:27;;;;;;;9.35;2.10;;;;;;;32.62;52.06;100685.75;143733;588;46009;-79
2023/10/28 12:58:54;;;;;;;15.98;2.12;;;;;;;32.62;51.62;100685.75;143727;596;47006;-79
2023/10/28 13:01:20;;;;;;;16.42;2.15;;;;;;;32.45;51.24;100686.78;143737;572;46010;-80
2023/10/28 13:03:47;;;;;;;11.27;2.30;;;;;;;32.40;52.26;100693.41;143732;589;46008;-79
2023/10/28 13:06:13;;;;;;;8.13;3.08;;;;;;;32.48;52.71;100684.13;143732;724;47002;-80
2023/10/28 13:08:39;;;;;;;9.43;2.33;;;;;;;32.50;53.23;100684.56;143728;584;46006;-79
2023/10/28 13:11:06;;;;;;;9.80;2.70;;;;;;;32.55;53.61;100691.06;143734;639;47004;-80
2023/10/28 13:13:32;;;;;;;10.02;2.00;;;;;;;32.49;52.63;100687.72;143733;582;46014;-80
2023/10/28 13:16:00;;;;;;;13.05;4.20;;;;;;;32.45;53.40;100682.06;143735;643;46008;-78
2023/10/28 13:18:27;;;;;;;12.73;4.15;;;;;;;32.46;53.29;100683.69;143735;592;46007;-81
2023/10/28 13:20:53;;;;;;;9.23;2.72;;;;;;;32.43;53.06;100678.00;143737;606;46010;-79